Time;durP1;ratioP1;P1;durP2;ratioP2;P2;SDS_P1;SDS_P2;PMS_P1;PMS_P2;Temp;Humidity;BMP_temperature;BMP_pressure;BME280_temperature;BME280_humidity;BME280_pressure;Samples;Min_cycle;Max_cycle;Signal;HPM_P1;HPM_P2
2021/08/09 00:02:02;;;;;;;11.03;3.93;;;;;;;15.02;76.27;101303.41;4968445;28;20881;-71
2021/08/09 00:04:30;;;;;;;10.53;4.50;;;;;;;15.11;75.79;101303.81;4967920;28;20241;-70
2021/08/09 00:06:56;;;;;;;11.83;4.50;;;;;;;15.08;75.68;101304.28;4969753;28;20221;-71
2021/08/09 00:09:22;;;;;;;9.73;4.23;;;;;;;14.99;75.72;101311.94;4968338;28;20221;-70
2021/08/09 00:11:49;;;;;;;16.70;4.47;;;;;;;14.97;76.00;101312.19;4966235;28;20214;-71
2021/08/09 00:14:15;;;;;;;9.33;3.97;;;;;;;14.97;76.01;101314.06;4967200;28;20217;-71
2021/08/09 00:16:42;;;;;;;8.40;3.90;;;;;;;15.09;75.59;101317.50;4964729;28;20214;-71
2021/08/09 00:19:08;;;;;;;11.43;4.43;;;;;;;15.12;75.26;101308.13;4969804;28;20245;-71
2021/08/09 00:21:36;;;;;;;9.13;3.60;;;;;;;15.09;75.33;101322.88;4967202;28;21235;-70
2021/08/09 00:24:02;;;;;;;15.50;4.07;;;;;;;15.13;75.14;101325.94;4967668;28;20237;-71
2021/08/09 00:26:29;;;;;;;13.30;4.13;;;;;;;15.12;75.64;101322.44;4968698;28;20632;-71
2021/08/09 00:28:56;;;;;;;12.50;4.23;;;;;;;15.01;75.78;101326.81;4968318;28;20370;-71
2021/08/09 00:31:22;;;;;;;11.13;5.03;;;;;;;15.11;75.61;101328.03;4967438;28;20222;-71
2021/08/09 00:33:48;;;;;;;11.67;4.10;;;;;;;14.96;76.09;101325.88;4969336;28;20281;-71
2021/08/09 00:36:15;;;;;;;11.77;4.60;;;;;;;15.01;75.93;101316.03;4967281;28;20217;-71
2021/08/09 00:38:43;;;;;;;11.77;3.93;;;;;;;14.88;76.37;101328.97;4969768;28;20674;-71
2021/08/09 00:41:09;;;;;;;9.30;3.83;;;;;;;14.89;76.31;101328.72;4969292;28;20217;-70
2021/08/09 00:43:35;;;;;;;10.07;4.30;;;;;;;14.86;76.62;101325.66;4969843;28;20216;-71
2021/08/09 00:46:04;;;;;;;12.70;4.63;;;;;;;14.80;76.83;101332.03;4966472;28;20249;-71
2021/08/09 00:48:31;;;;;;;12.50;4.23;;;;;;;14.87;76.46;101332.72;4966801;28;20242;-70
2021/08/09 00:50:58;;;;;;;11.47;4.10;;;;;;;14.72;76.98;101325.94;4969104;28;20212;-70
2021/08/09 00:53:24;;;;;;;10.97;4.27;;;;;;;14.83;76.82;101320.78;4967302;28;20670;-71
2021/08/09 00:55:52;;;;;;;10.80;4.70;;;;;;;14.75;77.31;101342.69;4968069;28;20222;-71
2021/08/09 00:58:19;;;;;;;17.03;5.63;;;;;;;14.77;77.17;101336.00;4967306;28;20276;-71
2021/08/09 01:00:46;;;;;;;11.10;4.93;;;;;;;14.58;77.60;101321.06;4969108;28;20272;-71
2021/08/09 01:03:12;;;;;;;14.70;5.27;;;;;;;14.65;77.75;101330.66;4965926;28;20221;-71
2021/08/09 01:05:38;;;;;;;14.20;4.97;;;;;;;14.64;77.41;101333.59;4974499;28;20233;-71
2021/08/09 01:08:12;;;;;;;11.20;4.90;;;;;;;14.66;77.58;101332.28;4975207;28;20597;-71
2021/08/09 01:10:45;;;;;;;16.57;5.20;;;;;;;14.53;78.08;101327.19;4973544;28;20216;-71
2021/08/09 01:13:16;;;;;;;9.87;4.77;;;;;;;14.55;78.05;101324.25;4969332;28;20216;-71
2021/08/09 01:15:46;;;;;;;12.90;4.30;;;;;;;14.56;78.06;101326.69;4973003;28;20276;-71
2021/08/09 01:18:13;;;;;;;14.30;4.97;;;;;;;14.52;78.18;101322.84;4973773;28;20318;-71
2021/08/09 01:20:48;;;;;;;9.10;4.60;;;;;;;14.48;78.23;101331.59;4971066;28;20223;-71
2021/08/09 01:23:29;;;;;;;12.33;4.63;;;;;;;14.56;78.43;101326.69;4975523;28;20217;-71
2021/08/09 01:25:58;;;;;;;14.63;4.83;;;;;;;14.59;77.79;101323.53;4975373;28;20683;-71
2021/08/09 01:28:29;;;;;;;16.00;4.33;;;;;;;14.57;77.96;101327.50;4971408;28;20212;-71
2021/08/09 01:30:56;;;;;;;14.97;4.57;;;;;;;14.52;78.12;101325.53;4975811;28;20271;-71
2021/08/09 01:33:24;;;;;;;14.57;5.10;;;;;;;14.50;78.47;101329.53;4972152;28;20639;-71
2021/08/09 01:35:52;;;;;;;14.37;4.90;;;;;;;14.57;78.29;101335.56;4972439;28;20225;-71
2021/08/09 01:38:20;;;;;;;11.00;4.73;;;;;;;14.37;78.97;101330.56;4973832;28;20275;-71
2021/08/09 01:40:47;;;;;;;11.50;4.43;;;;;;;14.42;78.98;101322.59;4974490;28;20212;-71
2021/08/09 01:43:14;;;;;;;10.60;5.27;;;;;;;14.47;78.76;101321.91;4972581;28;20216;-71
2021/08/09 01:45:42;;;;;;;17.40;5.17;;;;;;;14.34;79.42;101326.47;4974162;28;20240;-71
2021/08/09 01:48:09;;;;;;;15.90;5.40;;;;;;;14.34;79.21;101329.16;4975629;28;20217;-71
2021/08/09 01:50:36;;;;;;;12.10;4.87;;;;;;;14.32;79.48;101333.13;4973265;28;20256;-71
2021/08/09 01:53:03;;;;;;;15.67;5.77;;;;;;;14.35;79.29;101329.97;4972983;28;21197;-71
2021/08/09 01:55:29;;;;;;;17.80;5.77;;;;;;;14.27;79.63;101324.97;4972883;28;20730;-71
2021/08/09 01:57:56;;;;;;;12.07;4.90;;;;;;;14.28;79.54;101330.09;4975070;28;20307;-72
2021/08/09 02:00:23;;;;;;;14.43;5.37;;;;;;;14.45;78.94;101321.34;4972920;28;20220;-71
2021/08/09 02:02:52;;;;;;;13.83;5.00;;;;;;;14.29;79.47;101331.72;4975730;28;20216;-71
2021/08/09 02:05:19;;;;;;;10.03;4.73;;;;;;;14.30;79.63;101324.50;4973290;28;20241;-71
2021/08/09 02:07:47;;;;;;;13.67;5.77;;;;;;;14.31;79.53;101328.81;4973512;28;20216;-71
2021/08/09 02:10:17;;;;;;;15.10;5.73;;;;;;;14.21;79.86;101336.63;4971351;28;20628;-71
2021/08/09 02:12:48;;;;;;;13.93;5.73;;;;;;;14.30;79.76;101340.63;4974974;28;20271;-71
2021/08/09 02:15:16;;;;;;;14.80;5.17;;;;;;;14.22;79.92;101335.59;4974377;28;20206;-71
2021/08/09 02:17:44;;;;;;;19.83;5.80;;;;;;;14.28;79.57;101334.66;4969021;28;20228;-71
2021/08/09 02:20:18;;;;;;;13.60;5.80;;;;;;;14.34;79.61;101333.72;4969379;28;21159;-71
2021/08/09 02:22:46;;;;;;;14.70;5.47;;;;;;;14.34;79.46;101342.59;4970302;28;20268;-71
2021/08/09 02:25:16;;;;;;;11.90;5.23;;;;;;;14.47;79.05;101343.41;4971103;28;20238;-72
2021/08/09 02:27:44;;;;;;;16.77;5.67;;;;;;;14.41;78.96;101345.16;4968493;28;20287;-71
2021/08/09 02:30:13;;;;;;;12.57;4.80;;;;;;;14.24;79.76;101347.75;4968454;28;20579;-71
2021/08/09 02:32:40;;;;;;;11.67;4.90;;;;;;;14.32;79.50;101347.38;4971585;28;20213;-71
2021/08/09 02:35:07;;;;;;;15.13;4.90;;;;;;;14.42;78.74;101361.06;4970511;28;20288;-71
2021/08/09 02:37:35;;;;;;;15.53;5.40;;;;;;;14.32;79.33;101368.06;4970260;28;20657;-72
2021/08/09 02:40:03;;;;;;;17.53;5.10;;;;;;;14.27;79.34;101351.84;4971376;28;20224;-71
2021/08/09 02:42:29;;;;;;;13.43;4.73;;;;;;;14.25;79.56;101357.47;4970935;28;20219;-72
2021/08/09 02:44:56;;;;;;;15.13;5.13;;;;;;;14.20;79.46;101354.63;4968779;28;20236;-71
2021/08/09 02:47:24;;;;;;;12.30;5.23;;;;;;;14.31;79.37;101358.38;4969485;28;20216;-72
2021/08/09 02:49:50;;;;;;;11.60;4.53;;;;;;;14.35;78.79;101363.03;4970372;28;20233;-71
2021/08/09 02:52:19;;;;;;;11.73;5.77;;;;;;;14.45;78.66;101348.22;4972736;28;20242;-71
2021/08/09 02:54:47;;;;;;;17.03;5.00;;;;;;;14.40;78.47;101354.28;4969067;28;20209;-71
2021/08/09 02:57:15;;;;;;;15.17;4.57;;;;;;;14.39;78.53;101356.16;4967101;28;20256;-71
2021/08/09 02:59:41;;;;;;;13.70;5.43;;;;;;;14.44;78.59;101360.84;4967537;28;20220;-71
2021/08/09 03:02:08;;;;;;;11.20;4.80;;;;;;;14.58;78.01;101350.66;4970565;28;20272;-71
2021/08/09 03:04:36;;;;;;;13.00;5.37;;;;;;;14.46;78.21;101347.16;4970971;28;20237;-71
2021/08/09 03:07:05;;;;;;;15.60;5.30;;;;;;;14.48;78.14;101353.13;4970309;28;20794;-71
2021/08/09 03:09:32;;;;;;;12.87;5.23;;;;;;;14.36;78.77;101366.56;4968869;28;20217;-71
2021/08/09 03:11:59;;;;;;;14.03;5.23;;;;;;;14.18;79.33;101366.69;4970223;28;20586;-72
2021/08/09 03:14:27;;;;;;;14.77;5.20;;;;;;;14.10;79.50;101362.47;4971873;28;20264;-71
2021/08/09 03:16:54;;;;;;;16.23;5.20;;;;;;;14.14;79.42;101359.09;4970933;28;20640;-71
2021/08/09 03:19:20;;;;;;;15.20;5.40;;;;;;;14.30;78.76;101373.69;4968801;28;20296;-71
2021/08/09 03:21:51;;;;;;;14.63;5.40;;;;;;;14.22;79.08;101371.34;4969960;28;20652;-71
2021/08/09 03:24:17;;;;;;;12.10;4.67;;;;;;;14.26;78.91;101372.53;4967494;28;20312;-71
2021/08/09 03:26:44;;;;;;;15.10;5.00;;;;;;;14.14;79.34;101369.03;4967711;28;20381;-72
2021/08/09 03:29:11;;;;;;;14.03;4.90;;;;;;;14.19;79.05;101368.31;4969215;28;20299;-71
2021/08/09 03:31:38;;;;;;;17.77;5.23;;;;;;;14.22;78.86;101382.09;4970249;28;20231;-71
2021/08/09 03:34:04;;;;;;;17.13;5.30;;;;;;;14.20;78.99;101372.63;4966654;28;20234;-71
2021/08/09 03:36:30;;;;;;;16.90;5.20;;;;;;;14.12;78.90;101377.31;4969761;28;20217;-71
2021/08/09 03:38:57;;;;;;;18.17;4.90;;;;;;;14.16;78.79;101374.97;4968869;28;20240;-71
2021/08/09 03:41:23;;;;;;;14.97;4.63;;;;;;;14.04;79.31;101388.41;4969796;28;20981;-71
2021/08/09 03:43:49;;;;;;;13.03;4.83;;;;;;;14.06;79.26;101375.56;4967312;28;20218;-71
2021/08/09 03:46:17;;;;;;;12.83;5.57;;;;;;;14.19;78.89;101377.19;4969536;28;20279;-71
2021/08/09 03:48:44;;;;;;;11.33;5.43;;;;;;;14.16;78.81;101382.22;4967151;28;20237;-71
2021/08/09 03:51:10;;;;;;;12.03;5.17;;;;;;;14.11;79.03;101391.00;4970440;28;20680;-71
2021/08/09 03:53:36;;;;;;;12.67;5.20;;;;;;;14.30;78.42;101386.31;4969385;28;21127;-72
2021/08/09 03:56:03;;;;;;;13.37;5.40;;;;;;;14.27;78.28;101387.59;4966803;28;20236;-71
2021/08/09 03:58:29;;;;;;;14.23;4.93;;;;;;;14.17;78.52;101383.84;4968378;28;20293;-71
2021/08/09 04:00:55;;;;;;;12.53;4.87;;;;;;;14.27;78.29;101384.91;4967453;28;20225;-72
2021/08/09 04:03:23;;;;;;;15.43;5.20;;;;;;;14.31;78.26;101388.75;4969713;28;20254;-72
2021/08/09 04:05:49;;;;;;;15.07;5.40;;;;;;;14.42;77.83;101387.94;4967316;28;21198;-71
2021/08/09 04:08:16;;;;;;;11.87;4.80;;;;;;;14.54;77.42;101392.53;4967604;28;20596;-71
2021/08/09 04:10:42;;;;;;;15.37;4.90;;;;;;;14.27;78.16;101390.28;4970160;28;20225;-72
2021/08/09 04:13:08;;;;;;;16.07;5.90;;;;;;;14.41;77.91;101393.56;4964600;28;20271;-71
2021/08/09 04:15:35;;;;;;;10.83;5.00;;;;;;;14.39;77.84;101388.41;4968919;28;20214;-71
2021/08/09 04:18:01;;;;;;;11.70;5.13;;;;;;;14.26;78.28;101395.91;4967737;28;20221;-71
2021/08/09 04:20:29;;;;;;;14.00;4.77;;;;;;;14.20;78.72;101388.75;4968567;28;20237;-71
2021/08/09 04:22:55;;;;;;;13.23;5.37;;;;;;;14.14;78.90;101395.91;4968923;28;20217;-71
2021/08/09 04:25:22;;;;;;;19.60;5.77;;;;;;;14.22;78.60;101394.72;4967471;28;20307;-72
2021/08/09 04:27:48;;;;;;;13.93;5.20;;;;;;;14.16;79.06;101396.47;4966652;28;20530;-71
2021/08/09 04:30:16;;;;;;;14.90;5.03;;;;;;;14.36;78.07;101405.03;4967437;28;20330;-79
2021/08/09 04:32:43;;;;;;;17.57;5.00;;;;;;;14.31;78.17;101409.44;4979722;28;20214;-79
2021/08/09 04:35:12;;;;;;;11.43;5.47;;;;;;;14.21;78.51;101411.88;4978666;28;20228;-79
2021/08/09 04:37:41;;;;;;;16.10;5.63;;;;;;;14.37;78.30;101406.66;4979395;28;20217;-79
2021/08/09 04:40:08;;;;;;;12.87;5.70;;;;;;;14.10;79.21;101413.50;4976379;28;20224;-79
2021/08/09 04:42:34;;;;;;;19.50;5.57;;;;;;;14.20;78.83;101404.88;4978968;28;20622;-79
2021/08/09 04:45:01;;;;;;;12.50;5.30;;;;;;;14.28;78.54;101407.22;4979308;28;20222;-79
2021/08/09 04:47:27;;;;;;;9.23;4.77;;;;;;;14.08;79.37;101421.00;4979504;28;20236;-79
2021/08/09 04:49:54;;;;;;;19.43;6.03;;;;;;;14.02;79.56;101416.56;4977041;28;20248;-79
2021/08/09 04:52:20;;;;;;;14.30;4.87;;;;;;;14.13;79.04;101424.63;4973829;28;20244;-79
2021/08/09 04:54:48;;;;;;;12.67;5.40;;;;;;;14.23;78.85;101421.38;4978222;28;20217;-79
2021/08/09 04:57:14;;;;;;;14.37;5.40;;;;;;;14.35;78.64;101419.50;4980340;28;20248;-79
2021/08/09 04:59:41;;;;;;;10.80;4.77;;;;;;;14.18;79.18;101428.50;4976594;28;20217;-79
2021/08/09 05:02:07;;;;;;;19.60;6.10;;;;;;;14.29;78.78;101419.63;4978789;28;20215;-79
2021/08/09 05:04:34;;;;;;;18.47;5.63;;;;;;;14.38;78.66;101423.59;4979502;28;20225;-79
2021/08/09 05:07:02;;;;;;;12.03;5.27;;;;;;;14.42;78.37;101422.91;4978328;28;20246;-79
2021/08/09 05:09:29;;;;;;;15.30;5.37;;;;;;;14.53;78.08;101428.53;4977587;28;20223;-79
2021/08/09 05:11:57;;;;;;;17.53;6.00;;;;;;;14.43;78.76;101429.09;4978458;28;20655;-79
2021/08/09 05:14:23;;;;;;;14.60;5.87;;;;;;;14.32;79.28;101435.28;4978771;28;20212;-79
2021/08/09 05:16:49;;;;;;;12.40;5.43;;;;;;;14.31;78.97;101439.84;4976610;28;20246;-79
2021/08/09 05:19:16;;;;;;;12.67;5.70;;;;;;;14.48;78.61;101437.28;4981000;28;20800;-79
2021/08/09 05:21:42;;;;;;;15.50;5.20;;;;;;;14.57;78.81;101433.19;4976237;28;20260;-79
2021/08/09 05:24:09;;;;;;;18.07;5.57;;;;;;;14.77;78.01;101438.22;4978687;28;20226;-79
2021/08/09 05:26:35;;;;;;;13.30;4.33;;;;;;;14.56;78.84;101436.13;4975318;28;20233;-79
2021/08/09 05:29:03;;;;;;;14.20;4.50;;;;;;;14.96;76.96;101430.81;4977095;28;20221;-79
2021/08/09 05:31:30;;;;;;;14.63;4.90;;;;;;;15.02;77.19;101441.47;4976544;28;20702;-79
2021/08/09 05:33:57;;;;;;;12.50;4.83;;;;;;;14.97;77.83;101441.34;4977468;28;20736;-79
2021/08/09 05:36:24;;;;;;;9.63;4.53;;;;;;;14.67;78.49;101438.00;4975878;28;20216;-79
2021/08/09 05:38:50;;;;;;;12.87;4.70;;;;;;;14.75;78.45;101434.16;4976195;28;20212;-79
2021/08/09 05:41:17;;;;;;;11.70;4.77;;;;;;;15.01;77.48;101441.69;4978172;28;20201;-79
2021/08/09 05:43:43;;;;;;;11.97;4.77;;;;;;;15.19;77.00;101446.91;4978339;28;20232;-79
2021/08/09 05:46:11;;;;;;;14.47;4.97;;;;;;;15.04;77.49;101443.91;4973964;28;20284;-79
2021/08/09 05:48:37;;;;;;;12.53;4.63;;;;;;;15.14;77.21;101449.50;4975639;28;20225;-79
2021/08/09 05:51:04;;;;;;;12.03;5.07;;;;;;;15.06;77.33;101455.25;4975057;28;20245;-79
2021/08/09 05:53:31;;;;;;;12.87;5.53;;;;;;;15.08;77.73;101455.00;4976692;28;20283;-79
2021/08/09 05:55:58;;;;;;;16.10;4.90;;;;;;;15.23;76.79;101449.94;4976691;28;20237;-79
2021/08/09 05:58:24;;;;;;;10.37;5.10;;;;;;;15.21;76.81;101452.03;4978417;28;20244;-79
2021/08/09 06:00:51;;;;;;;14.77;4.83;;;;;;;15.10;77.42;101456.41;4979151;28;20224;-79
2021/08/09 06:03:22;;;;;;;18.30;5.57;;;;;;;15.22;76.72;101451.81;4978691;28;20212;-80
2021/08/09 06:05:49;;;;;;;15.40;5.37;;;;;;;15.02;77.29;101467.56;4977925;28;20225;-79
2021/08/09 06:08:15;;;;;;;14.27;4.83;;;;;;;15.09;77.47;101462.84;4978025;28;20655;-79
2021/08/09 06:10:42;;;;;;;14.10;4.77;;;;;;;15.19;76.83;101471.13;4978618;28;20205;-79
2021/08/09 06:13:08;;;;;;;11.50;4.00;;;;;;;15.45;76.01;101475.16;4977623;28;20220;-79
2021/08/09 06:15:35;;;;;;;17.53;5.60;;;;;;;15.20;76.88;101469.25;4978907;28;20220;-79
2021/08/09 06:18:01;;;;;;;13.30;4.80;;;;;;;15.04;77.94;101468.13;4975789;28;20239;-79
2021/08/09 06:20:29;;;;;;;13.20;5.13;;;;;;;15.10;77.66;101469.84;4975084;28;20221;-79
2021/08/09 06:22:56;;;;;;;12.93;5.33;;;;;;;15.19;76.93;101464.94;4977919;28;20714;-79
2021/08/09 06:25:25;;;;;;;12.43;4.83;;;;;;;15.31;76.88;101476.50;4976843;28;20301;-79
2021/08/09 06:27:51;;;;;;;12.63;4.23;;;;;;;15.31;76.20;101479.19;4979044;28;21164;-78
2021/08/09 06:30:18;;;;;;;11.03;4.63;;;;;;;15.37;76.21;101475.53;4977890;28;20218;-79
2021/08/09 06:32:44;;;;;;;10.27;3.97;;;;;;;15.45;75.84;101485.09;4978036;28;20201;-79
2021/08/09 06:35:11;;;;;;;10.43;4.10;;;;;;;15.39;75.92;101484.19;4974453;28;20233;-79
2021/08/09 06:37:40;;;;;;;12.73;4.17;;;;;;;15.66;75.16;101483.66;4976832;28;20232;-79
2021/08/09 06:40:08;;;;;;;11.87;4.07;;;;;;;15.59;74.61;101478.38;4979636;28;20218;-78
2021/08/09 06:42:34;;;;;;;13.00;4.13;;;;;;;15.34;75.38;101480.56;4973881;28;20781;-78
2021/08/09 06:45:01;;;;;;;9.80;4.17;;;;;;;15.27;75.90;101484.22;4977477;28;20883;-78
2021/08/09 06:47:27;;;;;;;8.13;3.80;;;;;;;15.38;76.13;101479.88;4973730;28;20229;-79
2021/08/09 06:49:54;;;;;;;11.60;4.23;;;;;;;15.60;75.05;101488.13;4973838;28;20236;-78
2021/08/09 06:52:21;;;;;;;15.70;4.57;;;;;;;15.35;75.91;101488.41;4973489;28;20249;-78
2021/08/09 06:54:49;;;;;;;8.47;4.60;;;;;;;15.64;75.36;101477.72;4973760;28;20243;-78
2021/08/09 06:57:16;;;;;;;9.77;3.80;;;;;;;15.54;74.40;101478.28;4971267;28;20236;-78
2021/08/09 06:59:42;;;;;;;10.60;4.00;;;;;;;15.59;75.22;101475.69;4975107;28;20224;-78
2021/08/09 07:02:08;;;;;;;8.07;3.50;;;;;;;15.83;73.85;101468.34;4972476;28;20217;-78
2021/08/09 07:04:35;;;;;;;13.47;4.17;;;;;;;15.88;73.93;101480.06;4973461;28;20248;-78
2021/08/09 07:07:01;;;;;;;11.13;3.70;;;;;;;15.95;73.97;101470.97;4969630;28;20342;-78
2021/08/09 07:09:28;;;;;;;11.03;3.97;;;;;;;16.11;73.27;101471.00;4971793;28;20233;-78
2021/08/09 07:11:55;;;;;;;12.57;3.60;;;;;;;16.14;73.43;101473.22;4972392;28;20248;-78
2021/08/09 07:14:22;;;;;;;11.87;3.90;;;;;;;16.23;72.51;101475.50;4970940;28;20224;-78
2021/08/09 07:16:50;;;;;;;10.57;3.50;;;;;;;16.13;73.05;101485.06;4969706;28;20206;-78
2021/08/09 07:19:17;;;;;;;12.13;3.60;;;;;;;16.16;72.52;101478.38;4973678;28;20222;-78
2021/08/09 07:21:43;;;;;;;9.93;3.87;;;;;;;16.48;71.71;101487.50;4970099;28;20284;-78
2021/08/09 07:24:10;;;;;;;12.33;4.13;;;;;;;16.68;70.91;101483.53;4967478;28;20226;-78
2021/08/09 07:26:36;;;;;;;12.90;4.27;;;;;;;17.07;70.14;101489.72;4971482;28;20235;-78
2021/08/09 07:29:04;;;;;;;10.80;3.37;;;;;;;17.09;69.63;101490.28;4973323;28;20211;-78
2021/08/09 07:31:30;;;;;;;10.20;4.33;;;;;;;17.02;70.38;101486.94;4972275;28;20219;-78
2021/08/09 07:33:57;;;;;;;8.57;3.60;;;;;;;16.94;70.19;101484.69;4971094;28;20233;-77
2021/08/09 07:36:23;;;;;;;10.53;3.23;;;;;;;16.88;70.29;101488.38;4967339;28;20275;-77
2021/08/09 07:38:49;;;;;;;13.33;3.67;;;;;;;16.83;70.83;101485.63;4967040;28;20294;-77
2021/08/09 07:41:16;;;;;;;11.83;3.60;;;;;;;17.31;69.34;101493.00;4970621;28;20752;-78
2021/08/09 07:43:42;;;;;;;9.70;3.27;;;;;;;17.64;67.75;101479.31;4968625;28;20228;-78
2021/08/09 07:46:10;;;;;;;11.03;3.30;;;;;;;17.17;68.40;101484.47;4967523;28;20313;-77
2021/08/09 07:48:36;;;;;;;9.60;3.13;;;;;;;17.37;67.59;101489.28;4967051;28;20242;-77
2021/08/09 07:51:03;;;;;;;14.13;4.17;;;;;;;17.67;67.30;101480.72;4970394;28;20223;-77
2021/08/09 07:53:29;;;;;;;8.07;2.80;;;;;;;17.87;65.68;101470.13;4967584;28;20639;-77
2021/08/09 07:55:56;;;;;;;10.07;3.17;;;;;;;18.30;65.13;101473.75;4970559;28;20220;-78
2021/08/09 07:58:22;;;;;;;8.37;3.10;;;;;;;18.51;63.32;101472.00;4967959;28;20248;-78
2021/08/09 08:00:51;;;;;;;9.80;2.83;;;;;;;18.63;63.36;101479.94;4968255;28;20220;-78
2021/08/09 08:03:19;;;;;;;8.73;3.63;;;;;;;18.73;63.29;101480.03;4968187;28;20224;-78
2021/08/09 08:05:46;;;;;;;12.53;3.00;;;;;;;18.58;64.14;101485.31;4967966;28;20215;-77
2021/08/09 08:08:12;;;;;;;9.27;3.30;;;;;;;18.67;62.88;101478.34;4965936;28;20245;-77
2021/08/09 08:10:39;;;;;;;9.50;2.90;;;;;;;18.69;62.03;101473.53;4967375;28;20618;-78
2021/08/09 08:13:05;;;;;;;7.10;2.50;;;;;;;18.32;63.77;101468.09;4966326;28;20227;-78
2021/08/09 08:15:31;;;;;;;10.80;2.63;;;;;;;18.39;63.87;101485.72;4967020;28;20222;-77
2021/08/09 08:17:58;;;;;;;9.43;3.00;;;;;;;18.09;63.44;101478.19;4968820;28;20566;-77
2021/08/09 08:20:26;;;;;;;9.07;2.27;;;;;;;18.48;62.73;101476.06;4966126;28;20230;-77
2021/08/09 08:22:53;;;;;;;6.60;2.70;;;;;;;18.58;62.94;101471.78;4967855;28;20222;-78
2021/08/09 08:25:21;;;;;;;6.20;2.37;;;;;;;18.58;61.59;101475.31;4966357;28;20239;-77
2021/08/09 08:27:47;;;;;;;5.50;2.47;;;;;;;18.72;61.91;101484.63;4967154;28;20248;-77
2021/08/09 08:30:15;;;;;;;8.33;2.13;;;;;;;18.60;60.34;101472.34;4966366;28;20223;-77
2021/08/09 08:32:41;;;;;;;6.07;2.17;;;;;;;18.79;60.88;101484.38;4964652;28;20211;-77
2021/08/09 08:35:09;;;;;;;6.93;2.60;;;;;;;18.99;60.13;101492.63;4963929;28;20526;-77
2021/08/09 08:37:36;;;;;;;8.40;2.40;;;;;;;19.15;60.07;101484.59;4965864;28;20593;-77
2021/08/09 08:40:04;;;;;;;11.87;2.63;;;;;;;19.52;57.96;101496.09;4966593;28;20209;-76
2021/08/09 08:42:31;;;;;;;8.70;2.73;;;;;;;19.61;60.49;101494.53;4967652;28;20286;-77
2021/08/09 08:44:57;;;;;;;8.10;2.43;;;;;;;19.35;60.04;101492.81;4965845;28;20769;-77
2021/08/09 08:47:24;;;;;;;6.77;2.40;;;;;;;19.22;60.84;101496.00;4965208;28;20253;-77
2021/08/09 08:49:51;;;;;;;7.67;2.47;;;;;;;19.50;59.46;101502.88;4968500;28;20232;-77
2021/08/09 08:52:18;;;;;;;5.17;1.97;;;;;;;19.30;58.35;101490.06;4965711;28;20707;-77
2021/08/09 08:54:45;;;;;;;6.27;2.23;;;;;;;19.27;59.25;101496.81;4966284;28;20216;-77
2021/08/09 08:57:17;;;;;;;5.77;2.13;;;;;;;19.69;58.00;101502.16;4967951;28;20258;-76
2021/08/09 08:59:44;;;;;;;5.53;2.07;;;;;;;19.58;57.81;101497.78;4967002;28;21434;-76
2021/08/09 09:02:29;;;;;;;5.53;2.33;;;;;;;19.47;57.86;101503.41;4966819;28;20321;-76
2021/08/09 09:05:05;;;;;;;4.47;1.70;;;;;;;19.16;59.40;101505.97;4967136;28;20238;-76
2021/08/09 09:07:32;;;;;;;8.73;2.50;;;;;;;18.65;60.29;101502.16;4969171;28;20235;-76
2021/08/09 09:10:13;;;;;;;4.70;2.00;;;;;;;18.39;62.58;101523.59;4965457;28;20235;-76
2021/08/09 09:12:40;;;;;;;8.73;2.17;;;;;;;18.36;63.14;101513.28;4968347;28;20227;-76
2021/08/09 09:15:07;;;;;;;6.40;2.20;;;;;;;18.10;64.08;101519.56;4965833;28;21216;-76
2021/08/09 09:17:34;;;;;;;7.63;2.30;;;;;;;17.86;65.82;101522.56;4965313;28;20224;-77
2021/08/09 09:20:22;;;;;;;8.13;2.30;;;;;;;17.47;70.70;101521.84;4967734;28;20318;-77
2021/08/09 09:22:48;;;;;;;5.90;2.77;;;;;;;17.54;69.73;101516.25;4965010;28;20215;-77
2021/08/09 09:25:17;;;;;;;3.53;2.33;;;;;;;17.61;70.41;101519.56;4966616;28;20229;-77
2021/08/09 09:27:43;;;;;;;9.17;2.57;;;;;;;17.73;69.05;101517.56;4970009;28;20306;-77
2021/08/09 09:30:28;;;;;;;10.63;2.73;;;;;;;18.06;68.62;101507.63;4971678;28;20774;-78
2021/08/09 09:32:59;;;;;;;4.57;2.10;;;;;;;18.31;66.48;101505.16;4969730;28;20211;-77
2021/08/09 09:35:25;;;;;;;7.40;2.30;;;;;;;18.23;66.37;101519.13;4969188;28;20553;-77
2021/08/09 09:37:52;;;;;;;5.47;1.90;;;;;;;18.36;66.35;101510.59;4971353;28;20216;-77
2021/08/09 09:40:20;;;;;;;10.80;2.60;;;;;;;18.78;64.64;101507.13;4970224;28;20280;-77
2021/08/09 09:42:47;;;;;;;6.23;2.43;;;;;;;19.62;61.65;101507.00;4971251;28;20360;-77
2021/08/09 09:45:22;;;;;;;6.43;2.47;;;;;;;19.67;61.87;101503.50;4972120;28;20228;-78
2021/08/09 09:48:07;;;;;;;7.33;3.10;;;;;;;19.91;61.30;101501.09;4969337;28;20232;-78
2021/08/09 09:50:34;;;;;;;4.73;2.67;;;;;;;19.95;60.37;101503.03;4970719;28;20644;-77
2021/08/09 09:53:14;;;;;;;5.70;2.10;;;;;;;19.72;61.25;101503.53;4971673;28;20286;-77
2021/08/09 09:55:43;;;;;;;8.27;2.20;;;;;;;19.87;60.92;101508.16;4968712;28;20774;-77
2021/08/09 09:58:10;;;;;;;3.97;1.93;;;;;;;19.68;60.81;101497.78;4970393;28;20243;-77
2021/08/09 10:00:36;;;;;;;7.00;2.10;;;;;;;19.29;60.96;101496.56;4970154;28;20286;-77
2021/08/09 10:03:03;;;;;;;5.20;2.30;;;;;;;19.20;60.91;101503.59;4968311;28;20755;-77
2021/08/09 10:05:30;;;;;;;5.33;2.30;;;;;;;18.96;61.08;101505.91;4969248;28;20301;-77
2021/08/09 10:07:58;;;;;;;6.27;1.93;;;;;;;18.95;60.30;101506.97;4969670;28;20238;-77
2021/08/09 10:10:24;;;;;;;4.53;2.03;;;;;;;19.25;60.63;101495.47;4969599;28;20585;-77
2021/08/09 10:12:53;;;;;;;7.57;2.00;;;;;;;19.13;59.90;101497.56;4968601;28;21563;-77
2021/08/09 10:15:21;;;;;;;7.33;2.03;;;;;;;19.11;60.41;101505.97;4969955;28;20227;-77
2021/08/09 10:17:48;;;;;;;5.03;2.40;;;;;;;19.23;60.24;101497.63;4970451;28;20363;-77
2021/08/09 10:20:16;;;;;;;4.93;1.80;;;;;;;19.10;59.86;101499.75;4969155;28;20326;-76
2021/08/09 10:22:55;;;;;;;5.47;2.30;;;;;;;19.61;59.25;101507.28;4970558;28;20263;-77
2021/08/09 10:25:43;;;;;;;7.43;2.57;;;;;;;19.71;59.02;101501.09;4969775;28;20296;-77
2021/08/09 10:28:11;;;;;;;6.53;2.60;;;;;;;19.75;59.39;101500.28;4969073;28;20758;-77
2021/08/09 10:30:37;;;;;;;6.77;2.30;;;;;;;20.10;58.82;101498.69;4969191;28;20216;-78
2021/08/09 10:33:08;;;;;;;6.20;2.43;;;;;;;20.46;58.50;101504.97;4968364;28;20213;-78
2021/08/09 10:36:03;;;;;;;4.70;2.53;;;;;;;19.71;59.08;101495.66;4968325;28;20221;-77
2021/08/09 10:38:45;;;;;;;11.23;3.00;;;;;;;19.32;60.44;101504.19;4969100;28;20624;-77
2021/08/09 10:41:53;;;;;;;5.97;2.47;;;;;;;19.35;59.67;101506.34;4967917;28;20256;-76
2021/08/09 10:44:27;;;;;;;7.27;2.23;;;;;;;19.24;60.41;101502.78;4899028;29;20232;-77
2021/08/09 10:46:56;;;;;;;4.93;2.30;;;;;;;19.27;60.10;101496.81;4898764;29;20230;-77
2021/08/09 10:49:56;;;;;;;6.20;2.33;;;;;;;19.49;59.81;101493.94;4937231;28;20245;-77
2021/08/09 10:52:41;;;;;;;7.13;2.67;;;;;;;19.99;57.97;101500.59;4973385;28;20242;-77
2021/08/09 10:55:48;;;;;;;5.90;2.53;;;;;;;19.80;58.85;101497.56;4970367;28;20231;-77
2021/08/09 10:58:55;;;;;;;4.20;2.40;;;;;;;20.53;57.92;101500.06;4971143;28;20318;-78
2021/08/09 11:01:25;;;;;;;4.80;2.20;;;;;;;21.92;54.67;101500.09;4971909;28;20299;-78
2021/08/09 11:04:14;;;;;;;4.77;2.53;;;;;;;21.72;52.60;101501.06;4971054;28;20229;-76
2021/08/09 11:06:42;;;;;;;5.83;2.37;;;;;;;20.81;55.56;101502.19;4968720;28;20224;-76
2021/08/09 11:09:43;;;;;;;4.13;2.03;;;;;;;20.73;55.47;101493.81;4968849;28;20322;-77
2021/08/09 11:12:18;;;;;;;7.63;2.37;;;;;;;20.39;55.85;101485.38;4969370;28;20230;-76
2021/08/09 11:15:07;;;;;;;5.97;1.93;;;;;;;20.71;56.08;101491.38;4967518;28;20213;-77
2021/08/09 11:17:44;;;;;;;6.30;2.03;;;;;;;20.15;55.95;101491.38;4967084;28;20217;-76
2021/08/09 11:20:12;;;;;;;5.27;2.37;;;;;;;20.29;56.25;101495.16;4967988;28;20295;-76
2021/08/09 11:22:39;;;;;;;6.67;2.13;;;;;;;20.28;56.81;101488.09;4968162;28;20224;-77
2021/08/09 11:25:23;;;;;;;4.50;2.10;;;;;;;20.64;56.54;101509.00;4969642;28;20214;-77
2021/08/09 11:27:57;;;;;;;7.20;2.60;;;;;;;20.65;57.05;101506.03;4970298;28;20239;-77